sensor_id;sensor_type;location;lat;lon;timestamp;pressure;altitude;pressure_sealevel;temperature;humidity
46714;BME280;32445;51.376;10.874;2022-07-24T00:00:44;99902.09;;;21.41;40.52
46714;BME280;32445;51.376;10.874;2022-07-24T00:03:45;99897.09;;;21.36;40.60
46714;BME280;32445;51.376;10.874;2022-07-24T00:06:45;99898.34;;;21.31;40.43
46714;BME280;32445;51.376;10.874;2022-07-24T00:09:46;99902.13;;;21.26;40.58
46714;BME280;32445;51.376;10.874;2022-07-24T00:12:46;99904.22;;;21.21;40.71
46714;BME280;32445;51.376;10.874;2022-07-24T00:15:46;99902.81;;;21.16;40.71
46714;BME280;32445;51.376;10.874;2022-07-24T00:18:47;99897.81;;;21.11;40.88
46714;BME280;32445;51.376;10.874;2022-07-24T00:21:47;99893.03;;;21.03;41.43
46714;BME280;32445;51.376;10.874;2022-07-24T00:24:48;99899.47;;;20.99;41.03
46714;BME280;32445;51.376;10.874;2022-07-24T00:27:48;99899.72;;;20.95;41.15
46714;BME280;32445;51.376;10.874;2022-07-24T00:30:48;99895.63;;;20.90;41.30
46714;BME280;32445;51.376;10.874;2022-07-24T00:33:49;99896.84;;;20.85;41.41
46714;BME280;32445;51.376;10.874;2022-07-24T00:36:49;99894.47;;;20.80;41.60
46714;BME280;32445;51.376;10.874;2022-07-24T00:39:49;99893.94;;;20.75;41.34
46714;BME280;32445;51.376;10.874;2022-07-24T00:42:51;99883.75;;;20.69;41.48
46714;BME280;32445;51.376;10.874;2022-07-24T00:45:51;99892.69;;;20.66;42.49
46714;BME280;32445;51.376;10.874;2022-07-24T00:48:52;99889.47;;;20.61;41.63
46714;BME280;32445;51.376;10.874;2022-07-24T00:51:53;99889.84;;;20.55;41.86
46714;BME280;32445;51.376;10.874;2022-07-24T00:54:54;99894.47;;;20.51;41.82
46714;BME280;32445;51.376;10.874;2022-07-24T00:57:55;99886.66;;;20.50;40.50
46714;BME280;32445;51.376;10.874;2022-07-24T01:00:55;99890.41;;;20.46;41.23
46714;BME280;32445;51.376;10.874;2022-07-24T01:03:57;99903.97;;;20.39;41.54
46714;BME280;32445;51.376;10.874;2022-07-24T01:06:58;99900.75;;;20.34;42.31
46714;BME280;32445;51.376;10.874;2022-07-24T01:09:58;99899.28;;;20.30;42.38
46714;BME280;32445;51.376;10.874;2022-07-24T01:12:59;99898.69;;;20.25;41.65
46714;BME280;32445;51.376;10.874;2022-07-24T01:16:00;99900.75;;;20.20;42.37
46714;BME280;32445;51.376;10.874;2022-07-24T01:19:00;99898.38;;;20.15;42.49
46714;BME280;32445;51.376;10.874;2022-07-24T01:22:00;99902.13;;;20.11;42.51
46714;BME280;32445;51.376;10.874;2022-07-24T01:25:01;99898.84;;;20.08;42.62
46714;BME280;32445;51.376;10.874;2022-07-24T01:28:02;99894.78;;;20.02;42.78
46714;BME280;32445;51.376;10.874;2022-07-24T01:31:02;99897.63;;;19.99;42.48
46714;BME280;32445;51.376;10.874;2022-07-24T01:34:03;99900.50;;;19.94;42.42
46714;BME280;32445;51.376;10.874;2022-07-24T01:37:04;99900.69;;;19.91;42.34
46714;BME280;32445;51.376;10.874;2022-07-24T01:40:05;99906.13;;;19.88;42.35
46714;BME280;32445;51.376;10.874;2022-07-24T01:43:05;99900.28;;;19.83;42.11
46714;BME280;32445;51.376;10.874;2022-07-24T01:46:06;99902.25;;;19.79;42.39
46714;BME280;32445;51.376;10.874;2022-07-24T01:49:07;99898.06;;;19.75;42.73
46714;BME280;32445;51.376;10.874;2022-07-24T01:52:07;99899.19;;;19.71;42.60
46714;BME280;32445;51.376;10.874;2022-07-24T01:55:08;99897.66;;;19.67;42.70
46714;BME280;32445;51.376;10.874;2022-07-24T01:58:08;99893.50;;;19.63;42.50
46714;BME280;32445;51.376;10.874;2022-07-24T02:01:09;99894.56;;;19.60;42.46
46714;BME280;32445;51.376;10.874;2022-07-24T02:04:09;99898.28;;;19.56;42.68
46714;BME280;32445;51.376;10.874;2022-07-24T02:07:10;99899.41;;;19.52;43.03
46714;BME280;32445;51.376;10.874;2022-07-24T02:10:12;99894.31;;;19.49;43.23
46714;BME280;32445;51.376;10.874;2022-07-24T02:13:13;99891.00;;;19.45;43.08
46714;BME280;32445;51.376;10.874;2022-07-24T02:16:14;99898.22;;;19.42;43.08
46714;BME280;32445;51.376;10.874;2022-07-24T02:19:15;99895.00;;;19.36;43.11
46714;BME280;32445;51.376;10.874;2022-07-24T02:22:15;99896.97;;;19.33;42.98
46714;BME280;32445;51.376;10.874;2022-07-24T02:25:16;99895.34;;;19.30;43.25
46714;BME280;32445;51.376;10.874;2022-07-24T02:28:17;99888.56;;;19.26;43.04
46714;BME280;32445;51.376;10.874;2022-07-24T02:31:18;99891.38;;;19.23;42.93
46714;BME280;32445;51.376;10.874;2022-07-24T02:34:18;99879.31;;;19.19;42.93
46714;BME280;32445;51.376;10.874;2022-07-24T02:37:18;99886.50;;;19.15;42.84
46714;BME280;32445;51.376;10.874;2022-07-24T02:40:19;99890.28;;;19.11;43.14
46714;BME280;32445;51.376;10.874;2022-07-24T02:43:19;99891.28;;;19.09;43.41
46714;BME280;32445;51.376;10.874;2022-07-24T02:46:19;99899.41;;;19.04;42.94
46714;BME280;32445;51.376;10.874;2022-07-24T02:49:20;99889.06;;;19.01;43.67
46714;BME280;32445;51.376;10.874;2022-07-24T02:52:20;99898.00;;;18.98;43.31
46714;BME280;32445;51.376;10.874;2022-07-24T02:55:20;99911.28;;;18.95;43.37
46714;BME280;32445;51.376;10.874;2022-07-24T02:58:21;99905.38;;;18.92;43.80
46714;BME280;32445;51.376;10.874;2022-07-24T03:01:21;99903.75;;;18.89;43.48
46714;BME280;32445;51.376;10.874;2022-07-24T03:04:21;99904.81;;;18.85;43.66
46714;BME280;32445;51.376;10.874;2022-07-24T03:07:22;99906.78;;;18.81;43.81
46714;BME280;32445;51.376;10.874;2022-07-24T03:10:22;99906.06;;;18.78;43.92
46714;BME280;32445;51.376;10.874;2022-07-24T03:13:22;99908.03;;;18.74;43.79
46714;BME280;32445;51.376;10.874;2022-07-24T03:16:23;99908.16;;;18.71;44.04
46714;BME280;32445;51.376;10.874;2022-07-24T03:19:23;99908.34;;;18.68;43.92
46714;BME280;32445;51.376;10.874;2022-07-24T03:22:23;99910.28;;;18.64;43.41
46714;BME280;32445;51.376;10.874;2022-07-24T03:25:24;99910.38;;;18.63;43.82
46714;BME280;32445;51.376;10.874;2022-07-24T03:28:24;99908.84;;;18.59;44.11
46714;BME280;32445;51.376;10.874;2022-07-24T03:31:25;99904.59;;;18.56;44.15
46714;BME280;32445;51.376;10.874;2022-07-24T03:34:25;99906.53;;;18.53;44.14
46714;BME280;32445;51.376;10.874;2022-07-24T03:37:26;99911.03;;;18.50;43.94
46714;BME280;32445;51.376;10.874;2022-07-24T03:40:26;99914.66;;;18.48;44.04
46714;BME280;32445;51.376;10.874;2022-07-24T03:43:26;99912.19;;;18.45;44.40
46714;BME280;32445;51.376;10.874;2022-07-24T03:46:27;99915.81;;;18.42;44.12
46714;BME280;32445;51.376;10.874;2022-07-24T03:49:28;99919.41;;;18.41;43.25
46714;BME280;32445;51.376;10.874;2022-07-24T03:52:29;99918.63;;;18.39;44.43
46714;BME280;32445;51.376;10.874;2022-07-24T03:55:29;99924.94;;;18.35;44.10
46714;BME280;32445;51.376;10.874;2022-07-24T03:58:29;99921.56;;;18.33;44.56
46714;BME280;32445;51.376;10.874;2022-07-24T04:01:30;99912.97;;;18.29;44.48
46714;BME280;32445;51.376;10.874;2022-07-24T04:04:30;99922.72;;;18.27;44.50
46714;BME280;32445;51.376;10.874;2022-07-24T04:07:30;99920.19;;;18.26;44.60
46714;BME280;32445;51.376;10.874;2022-07-24T04:10:31;99923.72;;;18.25;44.70
46714;BME280;32445;51.376;10.874;2022-07-24T04:13:31;99913.38;;;18.22;44.63
46714;BME280;32445;51.376;10.874;2022-07-24T04:16:32;99917.88;;;18.20;44.83
46714;BME280;32445;51.376;10.874;2022-07-24T04:19:32;99920.56;;;18.18;45.14
46714;BME280;32445;51.376;10.874;2022-07-24T04:22:33;99926.75;;;18.17;45.21
46714;BME280;32445;51.376;10.874;2022-07-24T04:25:33;99921.59;;;18.15;45.37
46714;BME280;32445;51.376;10.874;2022-07-24T04:28:34;99924.38;;;18.12;45.37
46714;BME280;32445;51.376;10.874;2022-07-24T04:31:35;99921.75;;;18.12;45.42
46714;BME280;32445;51.376;10.874;2022-07-24T04:34:36;99917.50;;;18.10;45.32
46714;BME280;32445;51.376;10.874;2022-07-24T04:37:36;99919.25;;;18.09;45.33
46714;BME280;32445;51.376;10.874;2022-07-24T04:40:36;99917.56;;;18.08;45.89
46714;BME280;32445;51.376;10.874;2022-07-24T04:43:37;99929.00;;;18.07;45.75
46714;BME280;32445;51.376;10.874;2022-07-24T04:46:37;99922.03;;;18.06;45.58
46714;BME280;32445;51.376;10.874;2022-07-24T04:49:37;99916.88;;;18.05;45.66
46714;BME280;32445;51.376;10.874;2022-07-24T04:52:38;99932.63;;;18.05;45.86
46714;BME280;32445;51.376;10.874;2022-07-24T04:55:38;99932.72;;;18.03;45.82
46714;BME280;32445;51.376;10.874;2022-07-24T04:58:38;99923.03;;;18.04;45.73
46714;BME280;32445;51.376;10.874;2022-07-24T05:01:39;99929.25;;;18.03;45.66
46714;BME280;32445;51.376;10.874;2022-07-24T05:04:39;99927.53;;;18.02;46.19
46714;BME280;32445;51.376;10.874;2022-07-24T05:07:40;99929.31;;;18.01;46.02
46714;BME280;32445;51.376;10.874;2022-07-24T05:10:40;99931.00;;;18.02;46.44
46714;BME280;32445;51.376;10.874;2022-07-24T05:13:40;99928.44;;;18.01;46.51
46714;BME280;32445;51.376;10.874;2022-07-24T05:16:41;99931.94;;;18.01;47.26
46714;BME280;32445;51.376;10.874;2022-07-24T05:19:41;99933.72;;;18.01;47.18
46714;BME280;32445;51.376;10.874;2022-07-24T05:22:42;99941.66;;;17.99;47.05
46714;BME280;32445;51.376;10.874;2022-07-24T05:25:42;99928.53;;;17.99;47.46
46714;BME280;32445;51.376;10.874;2022-07-24T05:28:42;99925.06;;;17.98;47.23
46714;BME280;32445;51.376;10.874;2022-07-24T05:31:43;99908.38;;;18.00;47.52
46714;BME280;32445;51.376;10.874;2022-07-24T05:34:43;99910.06;;;18.01;47.34
46714;BME280;32445;51.376;10.874;2022-07-24T05:37:46;99910.78;;;18.04;48.09
46714;BME280;32445;51.376;10.874;2022-07-24T05:40:50;99910.78;;;18.04;48.14
46714;BME280;32445;51.376;10.874;2022-07-24T05:43:50;99915.03;;;18.07;48.26
46714;BME280;32445;51.376;10.874;2022-07-24T05:46:50;99916.72;;;18.08;48.06
46714;BME280;32445;51.376;10.874;2022-07-24T05:49:51;99911.28;;;18.11;48.12
46714;BME280;32445;51.376;10.874;2022-07-24T05:52:51;99911.25;;;18.12;48.22
46714;BME280;32445;51.376;10.874;2022-07-24T05:56:04;99904.19;;;18.13;48.99
46714;BME280;32445;51.376;10.874;2022-07-24T05:59:12;99899.63;;;18.16;48.47
46714;BME280;32445;51.376;10.874;2022-07-24T06:02:13;99910.91;;;18.19;48.79
46714;BME280;32445;51.376;10.874;2022-07-24T06:05:14;99899.53;;;18.18;48.83
46714;BME280;32445;51.376;10.874;2022-07-24T06:08:14;99894.25;;;18.20;48.90
46714;BME280;32445;51.376;10.874;2022-07-24T06:11:15;99899.34;;;18.23;48.37
46714;BME280;32445;51.376;10.874;2022-07-24T06:14:17;99901.88;;;18.24;48.77
46714;BME280;32445;51.376;10.874;2022-07-24T06:17:18;99902.63;;;18.26;48.69
46714;BME280;32445;51.376;10.874;2022-07-24T06:20:18;99899.00;;;18.29;48.59
46714;BME280;32445;51.376;10.874;2022-07-24T06:23:18;99899.84;;;18.29;48.58
46714;BME280;32445;51.376;10.874;2022-07-24T06:26:19;99900.72;;;18.30;48.72
46714;BME280;32445;51.376;10.874;2022-07-24T06:29:19;99900.72;;;18.30;48.94
46714;BME280;32445;51.376;10.874;2022-07-24T06:32:20;99899.75;;;18.31;48.77
46714;BME280;32445;51.376;10.874;2022-07-24T06:35:20;99893.59;;;18.32;49.13
46714;BME280;32445;51.376;10.874;2022-07-24T06:38:28;99891.75;;;18.34;49.73
46714;BME280;32445;51.376;10.874;2022-07-24T06:41:36;99897.75;;;18.36;49.75
46714;BME280;32445;51.376;10.874;2022-07-24T06:44:36;99899.28;;;18.40;49.85
46714;BME280;32445;51.376;10.874;2022-07-24T06:47:40;99893.78;;;18.45;49.89
46714;BME280;32445;51.376;10.874;2022-07-24T06:50:40;99881.25;;;18.50;49.44
46714;BME280;32445;51.376;10.874;2022-07-24T06:53:40;99884.56;;;18.54;49.32
46714;BME280;32445;51.376;10.874;2022-07-24T06:56:43;99876.38;;;18.60;49.63
46714;BME280;32445;51.376;10.874;2022-07-24T06:59:49;99882.31;;;18.63;49.91
46714;BME280;32445;51.376;10.874;2022-07-24T07:02:52;99881.13;;;18.69;49.65
46714;BME280;32445;51.376;10.874;2022-07-24T07:05:53;99870.34;;;18.74;49.76
46714;BME280;32445;51.376;10.874;2022-07-24T07:08:53;99881.41;;;18.80;49.42
46714;BME280;32445;51.376;10.874;2022-07-24T07:11:56;99881.13;;;18.85;49.82
46714;BME280;32445;51.376;10.874;2022-07-24T07:15:19;99873.81;;;18.92;50.19
46714;BME280;32445;51.376;10.874;2022-07-24T07:18:33;99882.13;;;19.00;49.95
46714;BME280;32445;51.376;10.874;2022-07-24T07:21:41;99869.56;;;19.05;49.86
46714;BME280;32445;51.376;10.874;2022-07-24T07:24:49;99865.56;;;19.14;49.83
46714;BME280;32445;51.376;10.874;2022-07-24T07:27:50;99876.50;;;19.22;49.58
46714;BME280;32445;51.376;10.874;2022-07-24T07:30:53;99871.75;;;19.29;49.34
46714;BME280;32445;51.376;10.874;2022-07-24T07:33:54;99866.88;;;19.37;49.21
46714;BME280;32445;51.376;10.874;2022-07-24T07:36:58;99867.22;;;19.47;48.87
46714;BME280;32445;51.376;10.874;2022-07-24T07:39:58;99866.69;;;19.56;48.49
46714;BME280;32445;51.376;10.874;2022-07-24T07:43:02;99862.69;;;19.65;48.67
46714;BME280;32445;51.376;10.874;2022-07-24T07:49:43;99859.47;;;19.90;46.86
46714;BME280;32445;51.376;10.874;2022-07-24T07:52:44;99858.84;;;20.01;46.68
46714;BME280;32445;51.376;10.874;2022-07-24T07:55:58;99853.88;;;20.11;46.50
46714;BME280;32445;51.376;10.874;2022-07-24T07:59:07;99851.44;;;20.22;46.68
46714;BME280;32445;51.376;10.874;2022-07-24T08:02:28;99854.91;;;20.37;46.60
46714;BME280;32445;51.376;10.874;2022-07-24T08:05:29;99851.63;;;20.48;46.73
46714;BME280;32445;51.376;10.874;2022-07-24T08:08:30;99857.81;;;20.61;45.84
46714;BME280;32445;51.376;10.874;2022-07-24T08:11:31;99851.81;;;20.73;45.87
46714;BME280;32445;51.376;10.874;2022-07-24T08:14:31;99848.50;;;20.84;45.75
46714;BME280;32445;51.376;10.874;2022-07-24T08:17:35;99846.03;;;20.96;46.02
46714;BME280;32445;51.376;10.874;2022-07-24T08:20:42;99852.28;;;21.07;44.62
46714;BME280;32445;51.376;10.874;2022-07-24T08:23:47;99848.88;;;21.20;44.44
46714;BME280;32445;51.376;10.874;2022-07-24T08:26:49;99852.50;;;21.32;44.01
46714;BME280;32445;51.376;10.874;2022-07-24T08:29:50;99849.06;;;21.44;43.44
46714;BME280;32445;51.376;10.874;2022-07-24T08:32:56;99846.59;;;21.55;43.75
46714;BME280;32445;51.376;10.874;2022-07-24T08:35:56;99846.72;;;21.67;43.08
46714;BME280;32445;51.376;10.874;2022-07-24T08:39:04;99850.22;;;21.80;43.22
46714;BME280;32445;51.376;10.874;2022-07-24T08:42:13;99841.56;;;21.91;43.15
46714;BME280;32445;51.376;10.874;2022-07-24T08:45:14;99849.53;;;22.04;43.26
46714;BME280;32445;51.376;10.874;2022-07-24T08:48:16;99838.19;;;22.15;42.21
46714;BME280;32445;51.376;10.874;2022-07-24T08:51:22;99847.94;;;22.27;41.14
46714;BME280;32445;51.376;10.874;2022-07-24T08:54:29;99843.59;;;22.39;40.66
46714;BME280;32445;51.376;10.874;2022-07-24T08:57:38;99842.75;;;22.51;41.17
46714;BME280;32445;51.376;10.874;2022-07-24T09:00:48;99837.66;;;22.61;40.38
46714;BME280;32445;51.376;10.874;2022-07-24T09:04:00;99842.69;;;22.77;40.77
46714;BME280;32445;51.376;10.874;2022-07-24T09:07:12;99842.66;;;22.90;40.28
46714;BME280;32445;51.376;10.874;2022-07-24T09:10:15;99836.22;;;23.05;40.34
46714;BME280;32445;51.376;10.874;2022-07-24T09:13:18;99830.72;;;23.21;39.81
46714;BME280;32445;51.376;10.874;2022-07-24T09:16:23;99827.88;;;23.36;40.53
46714;BME280;32445;51.376;10.874;2022-07-24T09:19:24;99838.06;;;23.53;39.09
46714;BME280;32445;51.376;10.874;2022-07-24T09:25:33;99837.41;;;23.85;38.71
46714;BME280;32445;51.376;10.874;2022-07-24T09:28:54;99833.84;;;23.97;38.37
46714;BME280;32445;51.376;10.874;2022-07-24T09:31:59;99827.13;;;24.16;38.22
46714;BME280;32445;51.376;10.874;2022-07-24T09:35:00;99825.81;;;24.33;37.56
46714;BME280;32445;51.376;10.874;2022-07-24T09:38:05;99817.72;;;24.46;37.71
46714;BME280;32445;51.376;10.874;2022-07-24T09:41:06;99823.53;;;24.62;36.23
46714;BME280;32445;51.376;10.874;2022-07-24T09:44:06;99820.59;;;24.77;36.22
46714;BME280;32445;51.376;10.874;2022-07-24T09:47:12;99822.16;;;24.91;36.42
46714;BME280;32445;51.376;10.874;2022-07-24T09:50:16;99807.63;;;25.06;36.00
46714;BME280;32445;51.376;10.874;2022-07-24T09:53:18;99811.06;;;25.18;34.71
46714;BME280;32445;51.376;10.874;2022-07-24T09:56:19;99815.34;;;25.30;34.93
46714;BME280;32445;51.376;10.874;2022-07-24T09:59:25;99808.09;;;25.44;35.65
46714;BME280;32445;51.376;10.874;2022-07-24T10:02:31;99822.75;;;25.59;34.88
46714;BME280;32445;51.376;10.874;2022-07-24T10:05:33;99813.34;;;25.76;34.12
46714;BME280;32445;51.376;10.874;2022-07-24T10:08:37;99807.81;;;25.89;33.49
46714;BME280;32445;51.376;10.874;2022-07-24T10:11:40;99809.19;;;26.04;33.79
46714;BME280;32445;51.376;10.874;2022-07-24T10:14:45;99797.22;;;26.20;33.20
46714;BME280;32445;51.376;10.874;2022-07-24T10:18:14;99798.28;;;26.38;33.48
46714;BME280;32445;51.376;10.874;2022-07-24T10:27:34;99784.69;;;27.02;31.34
46714;BME280;32445;51.376;10.874;2022-07-24T10:30:35;99780.63;;;27.27;31.68
46714;BME280;32445;51.376;10.874;2022-07-24T10:33:37;99775.72;;;27.52;31.27
46714;BME280;32445;51.376;10.874;2022-07-24T10:36:47;99771.16;;;27.82;30.43
46714;BME280;32445;51.376;10.874;2022-07-24T10:43:14;99767.50;;;28.30;29.40
46714;BME280;32445;51.376;10.874;2022-07-24T10:46:14;99764.56;;;28.51;28.40
46714;BME280;32445;51.376;10.874;2022-07-24T10:49:38;99767.75;;;28.64;28.92
46714;BME280;32445;51.376;10.874;2022-07-24T10:52:39;99766.78;;;28.83;28.05
46714;BME280;32445;51.376;10.874;2022-07-24T10:55:41;99775.47;;;29.04;28.52
46714;BME280;32445;51.376;10.874;2022-07-24T10:58:56;99761.84;;;29.25;27.58
46714;BME280;32445;51.376;10.874;2022-07-24T11:02:26;99750.84;;;29.54;28.18
46714;BME280;32445;51.376;10.874;2022-07-24T11:05:30;99742.03;;;29.88;27.79
46714;BME280;32445;51.376;10.874;2022-07-24T11:08:52;99747.19;;;30.16;27.00
46714;BME280;32445;51.376;10.874;2022-07-24T11:14:52;99744.38;;;30.77;27.41
46714;BME280;32445;51.376;10.874;2022-07-24T11:18:17;99738.03;;;31.11;25.63
46714;BME280;32445;51.376;10.874;2022-07-24T11:24:27;99728.75;;;31.79;25.16
46714;BME280;32445;51.376;10.874;2022-07-24T11:27:41;99727.47;;;32.15;25.49
46714;BME280;32445;51.376;10.874;2022-07-24T11:30:43;99723.56;;;32.57;23.19
46714;BME280;32445;51.376;10.874;2022-07-24T11:33:44;99716.59;;;32.71;23.88
46714;BME280;32445;51.376;10.874;2022-07-24T11:36:47;99713.47;;;33.05;24.03
46714;BME280;32445;51.376;10.874;2022-07-24T11:39:54;99701.72;;;33.44;23.50
46714;BME280;32445;51.376;10.874;2022-07-24T11:42:56;99702.47;;;33.83;23.77
46714;BME280;32445;51.376;10.874;2022-07-24T11:45:57;99698.03;;;34.27;22.40
46714;BME280;32445;51.376;10.874;2022-07-24T11:49:05;99694.09;;;34.66;22.99
46714;BME280;32445;51.376;10.874;2022-07-24T11:52:06;99700.06;;;35.05;21.82
46714;BME280;32445;51.376;10.874;2022-07-24T11:55:11;99692.56;;;35.28;20.34
46714;BME280;32445;51.376;10.874;2022-07-24T11:58:17;99685.84;;;35.46;21.14
46714;BME280;32445;51.376;10.874;2022-07-24T12:01:20;99688.75;;;35.44;20.95
46714;BME280;32445;51.376;10.874;2022-07-24T12:04:21;99688.69;;;35.66;21.22
46714;BME280;32445;51.376;10.874;2022-07-24T12:07:24;99676.41;;;35.98;19.49
46714;BME280;32445;51.376;10.874;2022-07-24T12:10:26;99681.63;;;36.13;19.53
46714;BME280;32445;51.376;10.874;2022-07-24T12:13:27;99690.69;;;36.34;19.16
46714;BME280;32445;51.376;10.874;2022-07-24T12:16:30;99685.69;;;36.51;19.08
46714;BME280;32445;51.376;10.874;2022-07-24T12:19:30;99675.94;;;36.63;19.91
46714;BME280;32445;51.376;10.874;2022-07-24T12:22:30;99677.22;;;36.81;18.52
46714;BME280;32445;51.376;10.874;2022-07-24T12:25:31;99669.31;;;37.06;19.87
46714;BME280;32445;51.376;10.874;2022-07-24T12:28:32;99659.69;;;37.37;18.35
46714;BME280;32445;51.376;10.874;2022-07-24T12:31:32;99655.66;;;37.66;19.57
46714;BME280;32445;51.376;10.874;2022-07-24T12:34:47;99653.91;;;37.99;19.10
46714;BME280;32445;51.376;10.874;2022-07-24T12:37:47;99659.97;;;38.33;18.73
46714;BME280;32445;51.376;10.874;2022-07-24T12:40:48;99646.50;;;38.51;18.02
46714;BME280;32445;51.376;10.874;2022-07-24T12:46:57;99650.41;;;38.30;17.76
46714;BME280;32445;51.376;10.874;2022-07-24T12:49:57;99648.63;;;38.49;17.34
46714;BME280;32445;51.376;10.874;2022-07-24T12:53:05;99635.56;;;38.65;16.34
46714;BME280;32445;51.376;10.874;2022-07-24T12:59:06;99629.38;;;38.83;17.28
46714;BME280;32445;51.376;10.874;2022-07-24T13:02:21;99618.72;;;39.06;16.33
46714;BME280;32445;51.376;10.874;2022-07-24T13:05:38;99612.19;;;39.14;17.39
46714;BME280;32445;51.376;10.874;2022-07-24T13:08:39;99612.47;;;39.43;17.39
46714;BME280;32445;51.376;10.874;2022-07-24T13:11:40;99607.34;;;39.72;15.82
46714;BME280;32445;51.376;10.874;2022-07-24T13:14:42;99600.47;;;39.88;16.86
46714;BME280;32445;51.376;10.874;2022-07-24T13:17:42;99605.50;;;40.03;15.22
46714;BME280;32445;51.376;10.874;2022-07-24T13:20:43;99591.81;;;40.09;15.93
46714;BME280;32445;51.376;10.874;2022-07-24T13:23:43;99593.13;;;40.19;16.12
46714;BME280;32445;51.376;10.874;2022-07-24T13:26:44;99582.75;;;40.39;16.30
46714;BME280;32445;51.376;10.874;2022-07-24T13:29:45;99580.69;;;40.53;15.07
46714;BME280;32445;51.376;10.874;2022-07-24T13:32:45;99576.19;;;40.59;15.79
46714;BME280;32445;51.376;10.874;2022-07-24T13:35:45;99577.03;;;40.71;15.15
46714;BME280;32445;51.376;10.874;2022-07-24T13:38:46;99573.72;;;40.81;15.37
46714;BME280;32445;51.376;10.874;2022-07-24T13:41:46;99571.59;;;40.95;16.52
46714;BME280;32445;51.376;10.874;2022-07-24T13:44:47;99572.28;;;41.02;15.57
46714;BME280;32445;51.376;10.874;2022-07-24T13:47:47;99564.94;;;41.14;15.19
46714;BME280;32445;51.376;10.874;2022-07-24T13:50:47;99566.16;;;41.07;15.35
46714;BME280;32445;51.376;10.874;2022-07-24T13:53:48;99568.75;;;41.02;14.37
46714;BME280;32445;51.376;10.874;2022-07-24T13:56:48;99560.44;;;40.85;14.57
46714;BME280;32445;51.376;10.874;2022-07-24T13:59:50;99555.50;;;40.81;15.28
46714;BME280;32445;51.376;10.874;2022-07-24T14:02:51;99543.88;;;40.98;15.66
46714;BME280;32445;51.376;10.874;2022-07-24T14:05:55;99548.94;;;41.18;14.25
46714;BME280;32445;51.376;10.874;2022-07-24T14:08:56;99546.56;;;41.22;15.54
46714;BME280;32445;51.376;10.874;2022-07-24T14:11:57;99539.22;;;41.34;15.20
46714;BME280;32445;51.376;10.874;2022-07-24T14:14:57;99535.84;;;41.44;14.84
46714;BME280;32445;51.376;10.874;2022-07-24T14:17:58;99537.44;;;41.40;13.69
46714;BME280;32445;51.376;10.874;2022-07-24T14:20:58;99540.16;;;41.40;13.78
46714;BME280;32445;51.376;10.874;2022-07-24T14:23:58;99525.88;;;41.49;14.85
46714;BME280;32445;51.376;10.874;2022-07-24T14:26:59;99522.91;;;41.51;13.10
46714;BME280;32445;51.376;10.874;2022-07-24T14:30:00;99534.94;;;41.26;13.06
46714;BME280;32445;51.376;10.874;2022-07-24T14:33:00;99529.75;;;41.25;14.68
46714;BME280;32445;51.376;10.874;2022-07-24T14:36:01;99524.03;;;41.38;14.32
46714;BME280;32445;51.376;10.874;2022-07-24T14:39:01;99524.28;;;41.25;14.49
46714;BME280;32445;51.376;10.874;2022-07-24T14:42:02;99515.53;;;41.35;15.28
46714;BME280;32445;51.376;10.874;2022-07-24T14:45:03;99508.88;;;41.42;14.36
46714;BME280;32445;51.376;10.874;2022-07-24T14:48:04;99511.00;;;41.40;13.74
46714;BME280;32445;51.376;10.874;2022-07-24T14:51:05;99507.22;;;41.41;13.89
46714;BME280;32445;51.376;10.874;2022-07-24T14:54:06;99494.91;;;41.39;14.13
46714;BME280;32445;51.376;10.874;2022-07-24T14:57:07;99499.13;;;41.46;14.00
46714;BME280;32445;51.376;10.874;2022-07-24T15:00:09;99483.22;;;41.55;14.56
46714;BME280;32445;51.376;10.874;2022-07-24T15:03:09;99478.19;;;41.64;14.04
46714;BME280;32445;51.376;10.874;2022-07-24T15:06:09;99472.91;;;41.57;13.80
46714;BME280;32445;51.376;10.874;2022-07-24T15:09:10;99468.69;;;41.49;13.32
46714;BME280;32445;51.376;10.874;2022-07-24T15:12:10;99460.25;;;41.51;14.26
46714;BME280;32445;51.376;10.874;2022-07-24T15:15:10;99458.47;;;41.57;13.69
46714;BME280;32445;51.376;10.874;2022-07-24T15:18:11;99453.34;;;41.60;14.60
46714;BME280;32445;51.376;10.874;2022-07-24T15:21:11;99458.66;;;41.67;14.66
46714;BME280;32445;51.376;10.874;2022-07-24T15:24:12;99457.66;;;41.73;14.92
46714;BME280;32445;51.376;10.874;2022-07-24T15:27:12;99450.19;;;41.80;14.61
46714;BME280;32445;51.376;10.874;2022-07-24T15:30:18;99443.97;;;41.85;14.03
46714;BME280;32445;51.376;10.874;2022-07-24T15:33:19;99449.69;;;41.83;14.08
46714;BME280;32445;51.376;10.874;2022-07-24T15:36:19;99438.94;;;41.77;13.57
46714;BME280;32445;51.376;10.874;2022-07-24T15:39:19;99433.94;;;41.74;14.86
46714;BME280;32445;51.376;10.874;2022-07-24T15:42:20;99431.34;;;41.79;14.08
46714;BME280;32445;51.376;10.874;2022-07-24T15:45:20;99427.63;;;41.85;14.72
46714;BME280;32445;51.376;10.874;2022-07-24T15:48:21;99433.16;;;41.90;15.15
46714;BME280;32445;51.376;10.874;2022-07-24T15:51:21;99425.56;;;41.92;14.15
46714;BME280;32445;51.376;10.874;2022-07-24T15:54:22;99428.88;;;41.94;14.41
46714;BME280;32445;51.376;10.874;2022-07-24T15:57:22;99425.16;;;42.00;14.30
46714;BME280;32445;51.376;10.874;2022-07-24T16:00:22;99420.59;;;42.06;13.73
46714;BME280;32445;51.376;10.874;2022-07-24T16:03:23;99418.94;;;42.05;13.86
46714;BME280;32445;51.376;10.874;2022-07-24T16:06:23;99410.19;;;42.03;13.93
46714;BME280;32445;51.376;10.874;2022-07-24T16:09:23;99408.53;;;42.02;13.74
46714;BME280;32445;51.376;10.874;2022-07-24T16:12:24;99412.59;;;41.99;14.38
46714;BME280;32445;51.376;10.874;2022-07-24T16:15:24;99405.00;;;42.01;15.14
46714;BME280;32445;51.376;10.874;2022-07-24T16:18:25;99400.09;;;42.04;14.75
46714;BME280;32445;51.376;10.874;2022-07-24T16:21:25;99400.91;;;42.04;15.12